Terminal Aerodrome Forecast
Issued by NWS

Home | Current Version | Previous Version | Text Only | Print | Product List | Glossary On
Versions: 1 2 3 4 5 6 7 8 9 10 11 12 13 14 15 16 17 18 19 20
494
FTUS43 KJKL 091122
TAFSME
TAF
KSME 091122Z 0912/1012 28007KT P6SM VCSH BKN030 BKN035 OVC045
     FM091500 28006G16KT 5SM -SN BKN010 OVC040=

USA.gov is the U.S. government's official web portal to all federal, state and local government web resources and services.